createdAt,value
2019-06-08T00:00:55.991Z,16.47
2019-06-08T00:06:19.308Z,18.67
2019-06-08T00:11:42.627Z,18.37
2019-06-08T00:17:05.942Z,16.00
2019-06-08T00:22:29.221Z,17.23
2019-06-08T00:27:52.491Z,15.13
2019-06-08T00:33:18.493Z,15.88
2019-06-08T00:38:41.913Z,17.45
2019-06-08T00:44:05.182Z,15.47
2019-06-08T00:49:29.109Z,16.53
2019-06-08T00:54:52.787Z,16.53
2019-06-08T01:00:20.439Z,17.67
2019-06-08T01:05:44.119Z,18.40
2019-06-08T01:11:07.391Z,16.00
2019-06-08T01:16:30.806Z,16.43
2019-06-08T01:21:54.161Z,17.67
2019-06-08T01:27:17.458Z,18.10
2019-06-08T01:32:40.779Z,16.63
2019-06-08T01:38:04.392Z,15.17
2019-06-08T01:43:27.809Z,15.37
2019-06-08T01:48:51.046Z,16.90
2019-06-08T01:54:13.970Z,18.15
2019-06-08T01:59:37.250Z,18.43
2019-06-08T02:05:00.532Z,17.00
2019-06-08T02:10:26.665Z,16.50
2019-06-08T02:15:50.092Z,15.97
2019-06-08T02:21:13.490Z,15.73
2019-06-08T02:26:36.779Z,16.60
2019-06-08T02:32:00.026Z,16.80
2019-06-08T02:37:23.026Z,14.95
2019-06-08T02:42:46.497Z,15.30
2019-06-08T02:48:10.362Z,15.35
2019-06-08T02:53:36.774Z,15.97
2019-06-08T02:59:02.566Z,17.97
2019-06-08T03:04:27.921Z,15.80
2019-06-08T03:09:52.059Z,16.37
2019-06-08T03:15:19.398Z,16.27
2019-06-08T03:20:42.658Z,18.43
2019-06-08T03:26:05.953Z,19.43
2019-06-08T03:31:29.453Z,17.93
2019-06-08T03:36:56.704Z,17.30
2019-06-08T03:42:17.926Z,17.77
2019-06-08T03:47:41.901Z,19.30
2019-06-08T03:53:06.295Z,20.23
2019-06-08T03:58:33.642Z,17.87
2019-06-08T04:03:59.788Z,18.37
2019-06-08T04:09:20.436Z,17.37
2019-06-08T04:14:44.459Z,18.32
2019-06-08T04:20:11.493Z,19.95
2019-06-08T04:25:33.998Z,18.97
2019-06-08T04:30:57.434Z,17.25
2019-06-08T04:36:20.685Z,17.27
2019-06-08T04:41:45.078Z,19.40
2019-06-08T04:47:08.883Z,19.83
2019-06-08T04:52:32.154Z,18.27
2019-06-08T04:57:55.427Z,16.97
2019-06-08T05:03:18.713Z,20.17
2019-06-08T05:08:43.100Z,20.07
2019-06-08T05:14:06.548Z,19.93
2019-06-08T05:19:29.871Z,18.23
2019-06-08T05:24:53.171Z,18.67
2019-06-08T05:30:20.117Z,21.93
2019-06-08T05:35:43.498Z,23.17
2019-06-08T05:41:06.983Z,23.83
2019-06-08T05:46:30.194Z,20.25
2019-06-08T05:51:53.590Z,20.03
2019-06-08T05:57:16.895Z,23.20
2019-06-08T06:02:40.182Z,21.35
2019-06-08T06:08:16.192Z,21.97
2019-06-08T06:13:28.902Z,19.05
2019-06-08T06:18:52.334Z,17.62
2019-06-08T06:24:15.827Z,21.90
2019-06-08T06:29:38.830Z,20.68
2019-06-08T06:35:02.041Z,21.52
2019-06-08T06:40:25.928Z,18.05
2019-06-08T06:45:49.982Z,15.85
2019-06-08T06:51:25.698Z,17.80
2019-06-08T06:56:38.537Z,18.87
2019-06-08T07:02:01.805Z,17.63
2019-06-08T07:07:25.091Z,16.80
2019-06-08T07:12:48.682Z,15.57
2019-06-08T07:18:11.846Z,16.05
2019-06-08T07:23:35.129Z,18.10
2019-06-08T07:28:58.930Z,17.57
2019-06-08T07:34:21.946Z,18.17
2019-06-08T07:39:45.432Z,18.62
2019-06-08T07:45:08.995Z,14.85
2019-06-08T07:50:32.361Z,14.65
2019-06-08T07:55:56.336Z,16.27
2019-06-08T08:01:35.339Z,17.35
2019-06-08T08:06:45.405Z,18.20
2019-06-08T08:12:12.052Z,18.40
2019-06-08T08:17:34.471Z,17.70
2019-06-08T08:23:04.148Z,18.57
2019-06-08T08:28:23.040Z,19.23
2019-06-08T08:33:45.986Z,17.23
2019-06-08T08:39:10.270Z,19.13
2019-06-08T08:44:33.589Z,17.80
2019-06-08T08:49:59.152Z,15.87
2019-06-08T08:55:22.898Z,17.23
2019-06-08T09:00:48.715Z,16.73
2019-06-08T09:06:11.452Z,18.90
2019-06-08T09:11:34.701Z,17.17
2019-06-08T09:17:00.514Z,16.40
2019-06-08T09:22:22.997Z,18.73
2019-06-08T09:27:48.252Z,21.17
2019-06-08T09:33:11.733Z,21.47
2019-06-08T09:38:34.986Z,21.00
2019-06-08T09:44:00.513Z,18.45
2019-06-08T09:49:22.977Z,18.20
2019-06-08T09:54:48.140Z,16.43
2019-06-08T10:00:18.241Z,16.03
2019-06-08T10:05:39.396Z,14.10
2019-06-08T10:11:05.647Z,13.17
2019-06-08T10:16:30.574Z,12.83
2019-06-08T10:21:52.641Z,12.97
2019-06-08T10:27:18.493Z,11.80
2019-06-08T10:32:41.082Z,11.53
2019-06-08T10:38:07.957Z,12.33
2019-06-08T10:43:29.534Z,13.37
2019-06-08T10:48:52.951Z,13.23
2019-06-08T10:54:17.438Z,13.73
2019-06-08T10:59:40.999Z,14.60
2019-06-08T11:05:09.167Z,14.58
2019-06-08T11:10:29.334Z,14.10
2019-06-08T11:15:52.783Z,13.60
2019-06-08T11:21:18.468Z,19.07
2019-06-08T11:26:40.871Z,19.60
2019-06-08T11:32:04.244Z,18.27
2019-06-08T11:37:29.304Z,18.45
2019-06-08T11:42:52.686Z,16.83
2019-06-08T11:48:18.179Z,15.32
2019-06-08T11:53:40.734Z,13.62
2019-06-08T11:59:05.241Z,12.03
2019-06-08T12:04:28.856Z,10.40
2019-06-08T12:09:52.164Z,10.10
2019-06-08T12:15:18.140Z,9.57
2019-06-08T12:20:41.573Z,9.23
2019-06-08T12:26:06.005Z,7.13
2019-06-08T12:31:29.578Z,6.50
2019-06-08T12:37:15.632Z,6.93
2019-06-08T12:42:49.724Z,5.70
2019-06-08T12:48:29.069Z,6.63
2019-06-08T12:54:03.507Z,5.60
2019-06-08T12:59:28.256Z,6.00
2019-06-08T13:04:51.681Z,5.50
2019-06-08T13:10:20.073Z,5.80
2019-06-08T13:15:41.573Z,5.37
2019-06-08T13:21:20.343Z,4.87
2019-06-08T13:26:31.105Z,4.13
2019-06-08T13:31:54.704Z,3.70
2019-06-08T13:37:19.320Z,2.60
2019-06-08T13:42:43.014Z,1.97
2019-06-08T13:48:05.951Z,1.47
2019-06-08T13:53:31.881Z,1.67
2019-06-08T13:58:55.468Z,1.40
2019-06-08T14:04:20.626Z,1.50
2019-06-08T14:09:44.499Z,1.20
2019-06-08T14:15:08.712Z,1.20
2019-06-08T14:20:38.230Z,1.10
2019-06-08T14:26:00.933Z,1.10
2019-06-08T14:31:25.653Z,1.10
2019-06-08T14:36:49.680Z,1.53
2019-06-08T14:42:12.986Z,1.20
2019-06-08T14:47:37.632Z,1.20
2019-06-08T14:53:01.213Z,1.00
2019-06-08T14:58:29.127Z,0.90
2019-06-08T15:03:49.957Z,1.02
2019-06-08T15:09:13.212Z,1.00
2019-06-08T15:14:38.454Z,1.17
2019-06-08T15:20:02.001Z,1.10
2019-06-08T15:25:27.346Z,1.17
2019-06-08T15:30:51.203Z,1.00
2019-06-08T15:36:14.480Z,1.00
2019-06-08T15:41:38.198Z,1.30
2019-06-08T15:47:01.816Z,1.07
2019-06-08T15:52:24.944Z,1.20
2019-06-08T15:57:48.203Z,0.90
2019-06-08T16:03:11.627Z,1.00
2019-06-08T16:08:37.878Z,1.00
2019-06-08T16:14:00.055Z,1.32
2019-06-08T16:19:22.941Z,1.10
2019-06-08T16:24:46.230Z,1.17
2019-06-08T16:30:11.180Z,1.50
2019-06-08T16:35:35.768Z,1.23
2019-06-08T16:40:59.488Z,1.10
2019-06-08T16:46:22.764Z,1.10
2019-06-08T16:51:46.376Z,1.32
2019-06-08T16:57:11.038Z,1.40
2019-06-08T17:02:35.204Z,1.50
2019-06-08T17:07:58.686Z,1.37
2019-06-08T17:13:21.933Z,1.30
2019-06-08T17:18:45.211Z,1.42
2019-06-08T17:24:08.504Z,1.30
2019-06-08T17:29:32.818Z,1.20
2019-06-08T17:34:56.765Z,1.17
2019-06-08T17:40:20.302Z,1.00
2019-06-08T17:45:43.874Z,1.10
2019-06-08T17:51:07.169Z,1.30
2019-06-08T17:56:30.423Z,1.53
2019-06-08T18:01:53.726Z,1.30
2019-06-08T18:07:17.226Z,1.30
2019-06-08T18:12:43.502Z,1.40
2019-06-08T18:18:08.416Z,1.40
2019-06-08T18:23:32.077Z,1.37
2019-06-08T18:28:58.003Z,1.13
2019-06-08T18:34:20.699Z,1.33
2019-06-08T18:39:49.043Z,1.10
2019-06-08T18:45:13.895Z,1.20
2019-06-08T18:50:39.311Z,0.90
2019-06-08T18:56:02.147Z,1.40
2019-06-08T19:01:27.362Z,1.40
2019-06-08T19:06:50.402Z,1.33
2019-06-08T19:12:13.771Z,1.25
2019-06-08T19:17:43.927Z,1.17
2019-06-08T19:23:02.001Z,1.40
2019-06-08T19:28:35.790Z,1.20
2019-06-08T19:33:53.442Z,1.10
2019-06-08T19:39:17.650Z,1.60
2019-06-08T19:44:48.554Z,1.63
2019-06-08T19:50:07.631Z,1.47
2019-06-08T19:55:30.589Z,1.80
2019-06-08T20:00:54.910Z,11.23
2019-06-08T20:06:20.219Z,1.60
2019-06-08T20:11:48.500Z,1.50
2019-06-08T20:17:08.795Z,1.70
2019-06-08T20:22:32.077Z,1.80
2019-06-08T20:27:55.344Z,1.60
2019-06-08T20:33:18.616Z,1.83
2019-06-08T20:38:44.048Z,1.23
2019-06-08T20:44:08.475Z,1.35
2019-06-08T20:49:31.794Z,1.87
2019-06-08T20:54:55.092Z,1.40
2019-06-08T21:00:20.112Z,1.70
2019-06-08T21:05:43.631Z,1.53
2019-06-08T21:11:08.470Z,1.60
2019-06-08T21:16:32.271Z,1.35
2019-06-08T21:21:56.806Z,1.33
2019-06-08T21:27:20.502Z,1.30
2019-06-08T21:32:43.830Z,1.60
2019-06-08T21:38:20.353Z,1.50
2019-06-08T21:43:32.009Z,1.60
2019-06-08T21:48:56.877Z,1.60
2019-06-08T21:54:19.869Z,1.47
2019-06-08T21:59:43.049Z,1.80
2019-06-08T22:05:08.055Z,1.80
2019-06-08T22:10:31.076Z,1.42
2019-06-08T22:15:54.857Z,1.70
2019-06-08T22:21:18.448Z,1.40
2019-06-08T22:26:42.039Z,1.80
2019-06-08T22:32:07.425Z,1.50
2019-06-08T22:37:30.587Z,1.60
2019-06-08T22:42:54.585Z,1.60
2019-06-08T22:48:18.782Z,2.00
2019-06-08T22:53:41.757Z,1.50
2019-06-08T22:59:06.743Z,2.47
2019-06-08T23:04:30.042Z,2.40
2019-06-08T23:09:54.963Z,2.30
2019-06-08T23:15:18.774Z,2.25
2019-06-08T23:20:42.064Z,2.30
2019-06-08T23:26:10.008Z,2.73
2019-06-08T23:31:30.323Z,2.53
2019-06-08T23:36:59.141Z,2.52
2019-06-08T23:42:18.925Z,2.33
2019-06-08T23:47:42.227Z,2.47
2019-06-08T23:53:07.783Z,2.20
2019-06-08T23:58:30.461Z,2.37
